Terminal Aerodrome Forecast
Issued by NWS Sioux Falls, SD

Home | Current Version | Previous Version | Graphics & Text | Print | Product List | Glossary On
Versions: 1 2 3 4 5 6 7 8 9 10 11 12 13 14 15 16 17 18 19 20 21 22 23 24 25
615
FTUS43 KFSD 112119 AAB
TAFFSD
TAF AMD
KFSD 112119Z 1121/1218 16010KT 2SM -SN SCT015 OVC025
     FM120200 VRB03KT P6SM OVC018
     FM120600 33006KT P6SM OVC025
     FM121200 36012KT P6SM SCT060
     FM121600 36012G18KT P6SM SKC=

USA.gov is the U.S. government's official web portal to all federal, state and local government web resources and services.